sensor_id;sensor_type;location;lat;lon;timestamp;temperature;humidity
75786;DHT22;64402;44.708;37.644;2024-02-26T00:01:45;4.76;69.43
75786;DHT22;64402;44.708;37.644;2024-02-26T00:04:11;4.71;68.93
75786;DHT22;64402;44.708;37.644;2024-02-26T00:06:39;4.69;68.94
75786;DHT22;64402;44.708;37.644;2024-02-26T00:09:08;4.73;69.12
75786;DHT22;64402;44.708;37.644;2024-02-26T00:11:38;4.73;68.91
75786;DHT22;64402;44.708;37.644;2024-02-26T00:14:05;4.69;69.27
75786;DHT22;64402;44.708;37.644;2024-02-26T00:16:31;4.69;68.97
75786;DHT22;64402;44.708;37.644;2024-02-26T00:18:58;4.63;68.86
75786;DHT22;64402;44.708;37.644;2024-02-26T00:21:24;4.63;69.97
75786;DHT22;64402;44.708;37.644;2024-02-26T00:23:53;4.52;69.24
75786;DHT22;64402;44.708;37.644;2024-02-26T00:26:20;4.42;69.40
75786;DHT22;64402;44.708;37.644;2024-02-26T00:28:46;4.41;69.84
75786;DHT22;64402;44.708;37.644;2024-02-26T00:31:12;4.47;70.14
75786;DHT22;64402;44.708;37.644;2024-02-26T00:33:39;4.38;68.87
75786;DHT22;64402;44.708;37.644;2024-02-26T00:36:05;4.36;69.55
75786;DHT22;64402;44.708;37.644;2024-02-26T00:38:32;4.41;69.83
75786;DHT22;64402;44.708;37.644;2024-02-26T00:40:59;4.44;69.36
75786;DHT22;64402;44.708;37.644;2024-02-26T00:43:25;4.44;69.20
75786;DHT22;64402;44.708;37.644;2024-02-26T00:45:51;4.49;69.89
75786;DHT22;64402;44.708;37.644;2024-02-26T00:48:18;4.47;69.38
75786;DHT22;64402;44.708;37.644;2024-02-26T00:50:44;4.45;69.26
75786;DHT22;64402;44.708;37.644;2024-02-26T00:53:11;4.44;68.61
75786;DHT22;64402;44.708;37.644;2024-02-26T00:55:37;4.36;69.61
75786;DHT22;64402;44.708;37.644;2024-02-26T00:58:04;4.38;69.11
75786;DHT22;64402;44.708;37.644;2024-02-26T01:00:30;4.35;69.46
75786;DHT22;64402;44.708;37.644;2024-02-26T01:02:57;4.32;69.53
75786;DHT22;64402;44.708;37.644;2024-02-26T01:05:24;4.28;69.99
75786;DHT22;64402;44.708;37.644;2024-02-26T01:07:50;4.30;69.91
75786;DHT22;64402;44.708;37.644;2024-02-26T01:10:17;4.22;69.76
75786;DHT22;64402;44.708;37.644;2024-02-26T01:12:43;4.23;70.29
75786;DHT22;64402;44.708;37.644;2024-02-26T01:15:10;4.15;69.77
75786;DHT22;64402;44.708;37.644;2024-02-26T01:17:36;4.09;70.76
75786;DHT22;64402;44.708;37.644;2024-02-26T01:20:03;4.05;70.87
75786;DHT22;64402;44.708;37.644;2024-02-26T01:22:30;4.04;70.61
75786;DHT22;64402;44.708;37.644;2024-02-26T01:24:56;4.05;70.63
75786;DHT22;64402;44.708;37.644;2024-02-26T01:27:22;4.06;70.36
75786;DHT22;64402;44.708;37.644;2024-02-26T01:29:52;4.08;70.00
75786;DHT22;64402;44.708;37.644;2024-02-26T01:32:19;4.02;70.03
75786;DHT22;64402;44.708;37.644;2024-02-26T01:34:45;4.02;70.68
75786;DHT22;64402;44.708;37.644;2024-02-26T01:37:12;3.97;70.44
75786;DHT22;64402;44.708;37.644;2024-02-26T01:39:38;3.94;70.73
75786;DHT22;64402;44.708;37.644;2024-02-26T01:42:07;3.93;70.74
75786;DHT22;64402;44.708;37.644;2024-02-26T01:44:33;3.93;70.93
75786;DHT22;64402;44.708;37.644;2024-02-26T01:47:00;3.91;70.96
75786;DHT22;64402;44.708;37.644;2024-02-26T01:49:28;3.88;71.35
75786;DHT22;64402;44.708;37.644;2024-02-26T01:51:55;3.88;71.26
75786;DHT22;64402;44.708;37.644;2024-02-26T01:54:22;3.90;71.32
75786;DHT22;64402;44.708;37.644;2024-02-26T01:56:49;3.85;71.10
75786;DHT22;64402;44.708;37.644;2024-02-26T01:59:17;3.83;71.06
75786;DHT22;64402;44.708;37.644;2024-02-26T02:01:45;3.76;71.05
75786;DHT22;64402;44.708;37.644;2024-02-26T02:04:14;3.75;70.81
75786;DHT22;64402;44.708;37.644;2024-02-26T02:06:42;3.70;71.31
75786;DHT22;64402;44.708;37.644;2024-02-26T02:09:11;3.65;71.13
75786;DHT22;64402;44.708;37.644;2024-02-26T02:11:38;3.57;70.77
75786;DHT22;64402;44.708;37.644;2024-02-26T02:14:04;3.53;71.38
75786;DHT22;64402;44.708;37.644;2024-02-26T02:16:31;3.53;72.06
75786;DHT22;64402;44.708;37.644;2024-02-26T02:18:58;3.56;71.38
75786;DHT22;64402;44.708;37.644;2024-02-26T02:21:24;3.48;71.92
75786;DHT22;64402;44.708;37.644;2024-02-26T02:23:51;3.54;71.91
75786;DHT22;64402;44.708;37.644;2024-02-26T02:26:17;3.54;71.38
75786;DHT22;64402;44.708;37.644;2024-02-26T02:28:45;3.54;71.54
75786;DHT22;64402;44.708;37.644;2024-02-26T02:31:12;3.54;70.81
75786;DHT22;64402;44.708;37.644;2024-02-26T02:33:39;3.58;70.80
75786;DHT22;64402;44.708;37.644;2024-02-26T02:36:05;3.59;71.10
75786;DHT22;64402;44.708;37.644;2024-02-26T02:38:37;3.64;70.83
75786;DHT22;64402;44.708;37.644;2024-02-26T02:41:04;3.65;71.29
75786;DHT22;64402;44.708;37.644;2024-02-26T02:43:31;3.65;71.17
75786;DHT22;64402;44.708;37.644;2024-02-26T02:45:57;3.68;70.72
75786;DHT22;64402;44.708;37.644;2024-02-26T02:48:24;3.67;70.53
75786;DHT22;64402;44.708;37.644;2024-02-26T02:50:50;3.64;70.10
75786;DHT22;64402;44.708;37.644;2024-02-26T02:53:16;3.67;70.05
75786;DHT22;64402;44.708;37.644;2024-02-26T02:55:44;3.68;70.17
75786;DHT22;64402;44.708;37.644;2024-02-26T02:58:10;3.59;70.17
75786;DHT22;64402;44.708;37.644;2024-02-26T03:00:37;3.52;70.20
75786;DHT22;64402;44.708;37.644;2024-02-26T03:03:03;3.56;71.11
75786;DHT22;64402;44.708;37.644;2024-02-26T03:05:30;3.49;70.46
75786;DHT22;64402;44.708;37.644;2024-02-26T03:07:56;3.52;70.75
75786;DHT22;64402;44.708;37.644;2024-02-26T03:10:22;3.52;71.37
75786;DHT22;64402;44.708;37.644;2024-02-26T03:12:53;3.55;71.58
75786;DHT22;64402;44.708;37.644;2024-02-26T03:15:20;3.54;70.84
75786;DHT22;64402;44.708;37.644;2024-02-26T03:17:46;3.55;70.97
75786;DHT22;64402;44.708;37.644;2024-02-26T03:20:13;3.47;71.76
75786;DHT22;64402;44.708;37.644;2024-02-26T03:22:39;3.44;71.84
75786;DHT22;64402;44.708;37.644;2024-02-26T03:25:07;3.43;71.30
75786;DHT22;64402;44.708;37.644;2024-02-26T03:27:34;3.52;71.50
75786;DHT22;64402;44.708;37.644;2024-02-26T03:30:00;3.50;72.26
75786;DHT22;64402;44.708;37.644;2024-02-26T03:32:27;3.47;72.22
75786;DHT22;64402;44.708;37.644;2024-02-26T03:34:53;3.45;72.02
75786;DHT22;64402;44.708;37.644;2024-02-26T03:37:22;3.47;71.71
75786;DHT22;64402;44.708;37.644;2024-02-26T03:39:48;3.46;71.74
75786;DHT22;64402;44.708;37.644;2024-02-26T03:42:14;3.44;71.21
75786;DHT22;64402;44.708;37.644;2024-02-26T03:44:42;3.30;71.96
75786;DHT22;64402;44.708;37.644;2024-02-26T03:47:09;3.29;72.32
75786;DHT22;64402;44.708;37.644;2024-02-26T03:49:35;3.25;71.50
75786;DHT22;64402;44.708;37.644;2024-02-26T03:52:01;3.23;72.43
75786;DHT22;64402;44.708;37.644;2024-02-26T03:54:28;3.21;73.15
75786;DHT22;64402;44.708;37.644;2024-02-26T03:56:54;3.23;73.55
75786;DHT22;64402;44.708;37.644;2024-02-26T03:59:21;3.17;73.93
75786;DHT22;64402;44.708;37.644;2024-02-26T04:01:50;3.21;73.76
75786;DHT22;64402;44.708;37.644;2024-02-26T04:04:16;3.24;72.93
75786;DHT22;64402;44.708;37.644;2024-02-26T04:06:46;3.24;72.90
75786;DHT22;64402;44.708;37.644;2024-02-26T04:09:16;3.26;73.35
75786;DHT22;64402;44.708;37.644;2024-02-26T04:11:42;3.20;72.20
75786;DHT22;64402;44.708;37.644;2024-02-26T04:14:12;3.24;72.52
75786;DHT22;64402;44.708;37.644;2024-02-26T04:16:38;3.20;72.06
75786;DHT22;64402;44.708;37.644;2024-02-26T04:19:05;3.23;71.90
75786;DHT22;64402;44.708;37.644;2024-02-26T04:21:33;3.28;71.84
75786;DHT22;64402;44.708;37.644;2024-02-26T04:24:00;3.34;71.19
75786;DHT22;64402;44.708;37.644;2024-02-26T04:26:28;3.43;71.21
75786;DHT22;64402;44.708;37.644;2024-02-26T04:28:55;3.41;70.64
75786;DHT22;64402;44.708;37.644;2024-02-26T04:31:21;3.32;70.79
75786;DHT22;64402;44.708;37.644;2024-02-26T04:33:48;3.38;72.03
75786;DHT22;64402;44.708;37.644;2024-02-26T04:36:15;3.41;71.88
75786;DHT22;64402;44.708;37.644;2024-02-26T04:38:45;3.46;70.90
75786;DHT22;64402;44.708;37.644;2024-02-26T04:41:11;3.54;71.42
75786;DHT22;64402;44.708;37.644;2024-02-26T04:43:38;3.61;70.32
75786;DHT22;64402;44.708;37.644;2024-02-26T04:46:10;3.67;70.26
75786;DHT22;64402;44.708;37.644;2024-02-26T04:48:36;3.69;70.29
75786;DHT22;64402;44.708;37.644;2024-02-26T04:51:04;3.72;70.87
75786;DHT22;64402;44.708;37.644;2024-02-26T04:53:31;3.71;69.66
75786;DHT22;64402;44.708;37.644;2024-02-26T04:55:57;3.70;69.74
75786;DHT22;64402;44.708;37.644;2024-02-26T04:58:23;3.73;70.12
75786;DHT22;64402;44.708;37.644;2024-02-26T05:00:50;3.78;69.42
75786;DHT22;64402;44.708;37.644;2024-02-26T05:03:16;3.88;69.30
75786;DHT22;64402;44.708;37.644;2024-02-26T05:05:43;3.93;69.70
75786;DHT22;64402;44.708;37.644;2024-02-26T05:08:10;4.02;69.09
75786;DHT22;64402;44.708;37.644;2024-02-26T05:10:38;4.04;69.42
75786;DHT22;64402;44.708;37.644;2024-02-26T05:13:08;4.15;69.15
75786;DHT22;64402;44.708;37.644;2024-02-26T05:15:35;4.27;68.65
75786;DHT22;64402;44.708;37.644;2024-02-26T05:18:03;4.34;67.84
75786;DHT22;64402;44.708;37.644;2024-02-26T05:20:29;4.42;67.94
75786;DHT22;64402;44.708;37.644;2024-02-26T05:22:57;4.46;67.89
75786;DHT22;64402;44.708;37.644;2024-02-26T05:25:25;4.49;68.50
75786;DHT22;64402;44.708;37.644;2024-02-26T05:27:51;4.50;68.62
75786;DHT22;64402;44.708;37.644;2024-02-26T05:30:17;4.63;69.26
75786;DHT22;64402;44.708;37.644;2024-02-26T05:32:44;4.79;69.41
75786;DHT22;64402;44.708;37.644;2024-02-26T05:35:10;4.94;70.37
75786;DHT22;64402;44.708;37.644;2024-02-26T05:37:37;5.09;68.13
75786;DHT22;64402;44.708;37.644;2024-02-26T05:40:04;5.27;67.27
75786;DHT22;64402;44.708;37.644;2024-02-26T05:42:31;5.47;68.39
75786;DHT22;64402;44.708;37.644;2024-02-26T05:44:57;5.61;67.80
75786;DHT22;64402;44.708;37.644;2024-02-26T05:47:23;5.79;66.43
75786;DHT22;64402;44.708;37.644;2024-02-26T05:49:50;5.92;67.47
75786;DHT22;64402;44.708;37.644;2024-02-26T05:52:16;6.06;66.98
75786;DHT22;64402;44.708;37.644;2024-02-26T05:54:43;6.20;65.95
75786;DHT22;64402;44.708;37.644;2024-02-26T05:57:09;6.35;65.26
75786;DHT22;64402;44.708;37.644;2024-02-26T05:59:35;6.43;64.49
75786;DHT22;64402;44.708;37.644;2024-02-26T06:02:02;6.56;64.96
75786;DHT22;64402;44.708;37.644;2024-02-26T06:04:29;6.69;62.18
75786;DHT22;64402;44.708;37.644;2024-02-26T06:06:55;6.81;62.85
75786;DHT22;64402;44.708;37.644;2024-02-26T06:09:22;6.97;60.68
75786;DHT22;64402;44.708;37.644;2024-02-26T06:11:49;7.12;59.94
75786;DHT22;64402;44.708;37.644;2024-02-26T06:14:18;7.31;59.24
75786;DHT22;64402;44.708;37.644;2024-02-26T06:16:45;7.52;58.12
75786;DHT22;64402;44.708;37.644;2024-02-26T06:19:12;7.74;56.64
75786;DHT22;64402;44.708;37.644;2024-02-26T06:21:39;7.93;55.54
75786;DHT22;64402;44.708;37.644;2024-02-26T06:24:05;8.13;54.96
75786;DHT22;64402;44.708;37.644;2024-02-26T06:26:31;8.32;55.10
75786;DHT22;64402;44.708;37.644;2024-02-26T06:28:59;8.51;54.21
75786;DHT22;64402;44.708;37.644;2024-02-26T06:31:26;8.71;52.94
75786;DHT22;64402;44.708;37.644;2024-02-26T06:33:53;8.86;52.19
75786;DHT22;64402;44.708;37.644;2024-02-26T06:36:22;9.06;53.07
75786;DHT22;64402;44.708;37.644;2024-02-26T06:38:48;9.24;52.18
75786;DHT22;64402;44.708;37.644;2024-02-26T06:41:15;9.42;51.63
75786;DHT22;64402;44.708;37.644;2024-02-26T06:43:41;9.76;51.27
75786;DHT22;64402;44.708;37.644;2024-02-26T06:46:08;10.21;50.46
75786;DHT22;64402;44.708;37.644;2024-02-26T06:48:34;10.81;49.31
75786;DHT22;64402;44.708;37.644;2024-02-26T06:51:03;11.43;47.09
75786;DHT22;64402;44.708;37.644;2024-02-26T06:53:29;11.97;44.99
75786;DHT22;64402;44.708;37.644;2024-02-26T06:55:56;12.52;44.67
75786;DHT22;64402;44.708;37.644;2024-02-26T06:58:22;13.04;44.25
75786;DHT22;64402;44.708;37.644;2024-02-26T07:00:48;13.52;40.52
75786;DHT22;64402;44.708;37.644;2024-02-26T07:03:15;14.04;40.20
75786;DHT22;64402;44.708;37.644;2024-02-26T07:05:41;14.50;39.01
75786;DHT22;64402;44.708;37.644;2024-02-26T07:08:08;14.93;36.24
75786;DHT22;64402;44.708;37.644;2024-02-26T07:10:34;15.33;36.68
75786;DHT22;64402;44.708;37.644;2024-02-26T07:13:00;15.72;35.89
75786;DHT22;64402;44.708;37.644;2024-02-26T07:15:27;16.08;34.44
75786;DHT22;64402;44.708;37.644;2024-02-26T07:17:57;16.48;33.82
75786;DHT22;64402;44.708;37.644;2024-02-26T07:20:39;16.85;32.35
75786;DHT22;64402;44.708;37.644;2024-02-26T07:23:08;17.21;31.66
75786;DHT22;64402;44.708;37.644;2024-02-26T07:25:37;17.65;31.83
75786;DHT22;64402;44.708;37.644;2024-02-26T07:28:07;18.07;30.72
75786;DHT22;64402;44.708;37.644;2024-02-26T07:30:40;18.62;29.13
75786;DHT22;64402;44.708;37.644;2024-02-26T07:33:11;19.08;29.29
75786;DHT22;64402;44.708;37.644;2024-02-26T07:35:42;19.45;28.00
75786;DHT22;64402;44.708;37.644;2024-02-26T07:38:13;19.68;27.20
75786;DHT22;64402;44.708;37.644;2024-02-26T07:40:43;19.98;26.88
75786;DHT22;64402;44.708;37.644;2024-02-26T07:43:12;20.44;26.30
75786;DHT22;64402;44.708;37.644;2024-02-26T07:45:39;20.84;22.85
75786;DHT22;64402;44.708;37.644;2024-02-26T07:48:09;21.31;24.35
75786;DHT22;64402;44.708;37.644;2024-02-26T07:50:44;21.53;23.13
75786;DHT22;64402;44.708;37.644;2024-02-26T07:53:15;21.77;23.60
75786;DHT22;64402;44.708;37.644;2024-02-26T07:55:45;21.95;21.64
75786;DHT22;64402;44.708;37.644;2024-02-26T07:58:17;22.16;20.97
75786;DHT22;64402;44.708;37.644;2024-02-26T08:00:46;22.38;21.00
75786;DHT22;64402;44.708;37.644;2024-02-26T08:03:18;22.64;21.49
75786;DHT22;64402;44.708;37.644;2024-02-26T08:05:49;22.79;19.95
75786;DHT22;64402;44.708;37.644;2024-02-26T08:08:20;23.03;19.09
75786;DHT22;64402;44.708;37.644;2024-02-26T08:10:54;23.26;18.38
75786;DHT22;64402;44.708;37.644;2024-02-26T08:13:25;23.79;19.04
75786;DHT22;64402;44.708;37.644;2024-02-26T08:15:53;24.41;18.43
75786;DHT22;64402;44.708;37.644;2024-02-26T08:18:24;24.68;16.33
75786;DHT22;64402;44.708;37.644;2024-02-26T08:20:55;24.78;16.35
75786;DHT22;64402;44.708;37.644;2024-02-26T08:23:27;24.98;15.90
75786;DHT22;64402;44.708;37.644;2024-02-26T08:25:59;25.37;14.72
75786;DHT22;64402;44.708;37.644;2024-02-26T08:28:28;25.81;14.76
75786;DHT22;64402;44.708;37.644;2024-02-26T08:30:56;25.84;14.45
75786;DHT22;64402;44.708;37.644;2024-02-26T08:33:25;26.17;14.64
75786;DHT22;64402;44.708;37.644;2024-02-26T08:35:52;26.38;14.00
75786;DHT22;64402;44.708;37.644;2024-02-26T08:38:19;26.55;13.77
75786;DHT22;64402;44.708;37.644;2024-02-26T08:40:47;26.71;13.20
75786;DHT22;64402;44.708;37.644;2024-02-26T08:43:15;26.69;12.92
75786;DHT22;64402;44.708;37.644;2024-02-26T08:45:42;26.63;12.55
75786;DHT22;64402;44.708;37.644;2024-02-26T08:48:12;26.75;12.56
75786;DHT22;64402;44.708;37.644;2024-02-26T08:50:43;26.82;11.82
75786;DHT22;64402;44.708;37.644;2024-02-26T08:53:15;26.79;11.83
75786;DHT22;64402;44.708;37.644;2024-02-26T08:55:45;26.91;12.16
75786;DHT22;64402;44.708;37.644;2024-02-26T08:58:14;27.37;11.78
75786;DHT22;64402;44.708;37.644;2024-02-26T09:00:44;27.99;11.34
75786;DHT22;64402;44.708;37.644;2024-02-26T09:03:14;28.46;10.19
75786;DHT22;64402;44.708;37.644;2024-02-26T09:05:43;28.95;10.33
75786;DHT22;64402;44.708;37.644;2024-02-26T09:08:10;29.24;9.87
75786;DHT22;64402;44.708;37.644;2024-02-26T09:10:41;29.61;8.73
75786;DHT22;64402;44.708;37.644;2024-02-26T09:13:13;29.97;9.12
75786;DHT22;64402;44.708;37.644;2024-02-26T09:15:42;30.20;8.37
75786;DHT22;64402;44.708;37.644;2024-02-26T09:18:12;30.50;8.32
75786;DHT22;64402;44.708;37.644;2024-02-26T09:20:41;30.99;8.55
75786;DHT22;64402;44.708;37.644;2024-02-26T09:23:13;31.31;7.40
75786;DHT22;64402;44.708;37.644;2024-02-26T09:25:42;31.24;7.76
75786;DHT22;64402;44.708;37.644;2024-02-26T09:28:09;31.23;7.66
75786;DHT22;64402;44.708;37.644;2024-02-26T09:30:39;31.53;7.54
75786;DHT22;64402;44.708;37.644;2024-02-26T09:33:08;31.82;7.13
75786;DHT22;64402;44.708;37.644;2024-02-26T09:35:38;32.04;7.42
75786;DHT22;64402;44.708;37.644;2024-02-26T09:38:11;31.89;6.42
75786;DHT22;64402;44.708;37.644;2024-02-26T09:40:43;32.00;5.96
75786;DHT22;64402;44.708;37.644;2024-02-26T09:43:14;32.45;6.07
75786;DHT22;64402;44.708;37.644;2024-02-26T09:45:47;32.67;6.52
75786;DHT22;64402;44.708;37.644;2024-02-26T09:48:19;32.91;5.20
75786;DHT22;64402;44.708;37.644;2024-02-26T09:50:48;33.18;6.19
75786;DHT22;64402;44.708;37.644;2024-02-26T09:53:17;33.64;6.25
75786;DHT22;64402;44.708;37.644;2024-02-26T09:55:45;34.27;6.10
75786;DHT22;64402;44.708;37.644;2024-02-26T09:58:12;34.62;4.63
75786;DHT22;64402;44.708;37.644;2024-02-26T10:00:49;34.65;4.96
75786;DHT22;64402;44.708;37.644;2024-02-26T10:03:21;34.24;3.88
75786;DHT22;64402;44.708;37.644;2024-02-26T10:05:50;34.21;5.38
75786;DHT22;64402;44.708;37.644;2024-02-26T10:08:18;34.14;5.27
75786;DHT22;64402;44.708;37.644;2024-02-26T10:10:56;34.26;4.23
75786;DHT22;64402;44.708;37.644;2024-02-26T10:13:28;34.40;3.75
75786;DHT22;64402;44.708;37.644;2024-02-26T10:16:09;34.65;4.09
75786;DHT22;64402;44.708;37.644;2024-02-26T10:18:49;35.44;3.45
75786;DHT22;64402;44.708;37.644;2024-02-26T10:21:22;35.83;3.64
75786;DHT22;64402;44.708;37.644;2024-02-26T10:23:51;36.07;3.41
75786;DHT22;64402;44.708;37.644;2024-02-26T10:26:21;36.49;2.06
75786;DHT22;64402;44.708;37.644;2024-02-26T10:28:51;36.82;2.91
75786;DHT22;64402;44.708;37.644;2024-02-26T10:31:25;36.64;1.72
75786;DHT22;64402;44.708;37.644;2024-02-26T10:33:57;36.89;2.43
75786;DHT22;64402;44.708;37.644;2024-02-26T10:36:28;37.08;2.06
75786;DHT22;64402;44.708;37.644;2024-02-26T10:39:05;37.49;1.80
75786;DHT22;64402;44.708;37.644;2024-02-26T10:41:36;37.48;0.93
75786;DHT22;64402;44.708;37.644;2024-02-26T10:44:08;37.89;1.90
75786;DHT22;64402;44.708;37.644;2024-02-26T10:46:35;38.04;1.47
75786;DHT22;64402;44.708;37.644;2024-02-26T10:49:05;38.24;1.05
75786;DHT22;64402;44.708;37.644;2024-02-26T10:51:35;38.31;1.07
75786;DHT22;64402;44.708;37.644;2024-02-26T10:54:06;38.80;1.16
75786;DHT22;64402;44.708;37.644;2024-02-26T10:56:37;39.07;0.29
75786;DHT22;64402;44.708;37.644;2024-02-26T10:59:09;38.95;0.45
75786;DHT22;64402;44.708;37.644;2024-02-26T11:01:39;39.29;0.00
75786;DHT22;64402;44.708;37.644;2024-02-26T11:04:09;39.68;0.09
75786;DHT22;64402;44.708;37.644;2024-02-26T11:06:38;40.23;-0.32
75786;DHT22;64402;44.708;37.644;2024-02-26T11:09:06;40.23;-0.75
75786;DHT22;64402;44.708;37.644;2024-02-26T11:11:35;40.59;-0.97
75786;DHT22;64402;44.708;37.644;2024-02-26T11:14:03;40.33;0.06
75786;DHT22;64402;44.708;37.644;2024-02-26T11:16:32;40.66;-0.71
75786;DHT22;64402;44.708;37.644;2024-02-26T11:19:04;40.84;-0.76
75786;DHT22;64402;44.708;37.644;2024-02-26T11:21:36;41.12;-1.46
75786;DHT22;64402;44.708;37.644;2024-02-26T11:24:13;41.47;-1.19
75786;DHT22;64402;44.708;37.644;2024-02-26T11:26:58;41.69;-1.80
75786;DHT22;64402;44.708;37.644;2024-02-26T11:29:49;41.50;-1.00
75786;DHT22;64402;44.708;37.644;2024-02-26T11:32:19;41.59;-0.90
75786;DHT22;64402;44.708;37.644;2024-02-26T11:34:47;42.00;-1.38
75786;DHT22;64402;44.708;37.644;2024-02-26T11:37:18;41.76;-1.32
75786;DHT22;64402;44.708;37.644;2024-02-26T11:39:47;41.61;-1.20
75786;DHT22;64402;44.708;37.644;2024-02-26T11:42:23;41.05;-1.69
75786;DHT22;64402;44.708;37.644;2024-02-26T11:44:58;41.31;-1.58
75786;DHT22;64402;44.708;37.644;2024-02-26T11:47:27;41.54;-1.34
75786;DHT22;64402;44.708;37.644;2024-02-26T11:49:57;41.70;-2.07
75786;DHT22;64402;44.708;37.644;2024-02-26T11:52:29;41.90;-2.12
75786;DHT22;64402;44.708;37.644;2024-02-26T11:55:00;42.01;-1.61
75786;DHT22;64402;44.708;37.644;2024-02-26T11:57:40;42.10;-1.58
75786;DHT22;64402;44.708;37.644;2024-02-26T12:00:19;42.81;-1.22
75786;DHT22;64402;44.708;37.644;2024-02-26T12:02:53;43.38;-1.54
75786;DHT22;64402;44.708;37.644;2024-02-26T12:05:40;43.68;-2.07
75786;DHT22;64402;44.708;37.644;2024-02-26T12:08:09;43.28;-1.97
75786;DHT22;64402;44.708;37.644;2024-02-26T12:10:44;42.81;-1.21
75786;DHT22;64402;44.708;37.644;2024-02-26T12:13:16;42.78;-0.60
75786;DHT22;64402;44.708;37.644;2024-02-26T12:15:55;42.81;-1.25
75786;DHT22;64402;44.708;37.644;2024-02-26T12:18:26;42.28;-0.71
75786;DHT22;64402;44.708;37.644;2024-02-26T12:21:00;42.38;-0.90
75786;DHT22;64402;44.708;37.644;2024-02-26T12:23:28;42.08;-0.58
75786;DHT22;64402;44.708;37.644;2024-02-26T12:25:59;42.78;-0.90
75786;DHT22;64402;44.708;37.644;2024-02-26T12:28:30;42.80;-0.85
75786;DHT22;64402;44.708;37.644;2024-02-26T12:34:19;41.83;-0.38
75786;DHT22;64402;44.708;37.644;2024-02-26T12:36:47;41.25;-0.38
75786;DHT22;64402;44.708;37.644;2024-02-26T12:39:14;41.19;-0.16
75786;DHT22;64402;44.708;37.644;2024-02-26T12:41:52;40.84;0.15
75786;DHT22;64402;44.708;37.644;2024-02-26T12:44:25;40.66;0.50
75786;DHT22;64402;44.708;37.644;2024-02-26T12:47:03;41.13;-0.12
75786;DHT22;64402;44.708;37.644;2024-02-26T12:49:31;41.47;0.15
75786;DHT22;64402;44.708;37.644;2024-02-26T12:51:59;42.15;-0.54
75786;DHT22;64402;44.708;37.644;2024-02-26T12:54:35;42.79;-0.34
75786;DHT22;64402;44.708;37.644;2024-02-26T12:57:07;42.64;-0.46
75786;DHT22;64402;44.708;37.644;2024-02-26T12:59:38;42.28;-1.09
75786;DHT22;64402;44.708;37.644;2024-02-26T13:02:07;41.95;-0.84
75786;DHT22;64402;44.708;37.644;2024-02-26T13:04:34;41.30;-0.09
75786;DHT22;64402;44.708;37.644;2024-02-26T13:07:04;41.18;0.05
75786;DHT22;64402;44.708;37.644;2024-02-26T13:09:35;41.29;-0.57
75786;DHT22;64402;44.708;37.644;2024-02-26T13:12:07;41.40;-0.42
75786;DHT22;64402;44.708;37.644;2024-02-26T13:14:35;41.11;-0.24
75786;DHT22;64402;44.708;37.644;2024-02-26T13:17:03;41.12;-0.38
75786;DHT22;64402;44.708;37.644;2024-02-26T13:19:33;40.52;0.08
75786;DHT22;64402;44.708;37.644;2024-02-26T13:22:04;39.99;0.40
75786;DHT22;64402;44.708;37.644;2024-02-26T13:24:36;39.77;0.15
75786;DHT22;64402;44.708;37.644;2024-02-26T13:27:08;39.68;0.35
75786;DHT22;64402;44.708;37.644;2024-02-26T13:29:38;39.43;0.86
75786;DHT22;64402;44.708;37.644;2024-02-26T13:32:06;39.18;0.60
75786;DHT22;64402;44.708;37.644;2024-02-26T13:34:34;38.90;1.05
75786;DHT22;64402;44.708;37.644;2024-02-26T13:37:02;38.16;1.93
75786;DHT22;64402;44.708;37.644;2024-02-26T13:39:30;37.08;2.98
75786;DHT22;64402;44.708;37.644;2024-02-26T13:41:57;36.87;2.90
75786;DHT22;64402;44.708;37.644;2024-02-26T13:44:27;35.88;3.27
75786;DHT22;64402;44.708;37.644;2024-02-26T13:46:56;34.40;4.19
75786;DHT22;64402;44.708;37.644;2024-02-26T13:49:27;34.53;4.59
75786;DHT22;64402;44.708;37.644;2024-02-26T13:51:56;34.89;4.50
75786;DHT22;64402;44.708;37.644;2024-02-26T13:54:23;35.28;4.06
75786;DHT22;64402;44.708;37.644;2024-02-26T13:56:51;35.16;4.07
75786;DHT22;64402;44.708;37.644;2024-02-26T13:59:19;35.05;4.52
75786;DHT22;64402;44.708;37.644;2024-02-26T14:01:46;34.73;4.64
75786;DHT22;64402;44.708;37.644;2024-02-26T14:04:13;34.22;5.47
75786;DHT22;64402;44.708;37.644;2024-02-26T14:06:40;34.05;5.31
75786;DHT22;64402;44.708;37.644;2024-02-26T14:09:08;33.67;6.05
75786;DHT22;64402;44.708;37.644;2024-02-26T14:11:40;33.33;6.31
75786;DHT22;64402;44.708;37.644;2024-02-26T14:14:11;32.16;7.34
75786;DHT22;64402;44.708;37.644;2024-02-26T14:16:38;31.43;8.18
75786;DHT22;64402;44.708;37.644;2024-02-26T14:19:13;30.96;9.37
75786;DHT22;64402;44.708;37.644;2024-02-26T14:21:41;30.37;9.30
75786;DHT22;64402;44.708;37.644;2024-02-26T14:24:09;30.04;9.43
75786;DHT22;64402;44.708;37.644;2024-02-26T14:26:36;29.91;10.33
75786;DHT22;64402;44.708;37.644;2024-02-26T14:29:04;29.56;10.31
75786;DHT22;64402;44.708;37.644;2024-02-26T14:31:32;29.14;10.98
75786;DHT22;64402;44.708;37.644;2024-02-26T14:34:00;28.45;11.68
75786;DHT22;64402;44.708;37.644;2024-02-26T14:36:27;27.60;12.73
75786;DHT22;64402;44.708;37.644;2024-02-26T14:38:53;26.85;14.09
75786;DHT22;64402;44.708;37.644;2024-02-26T14:41:20;25.77;15.03
75786;DHT22;64402;44.708;37.644;2024-02-26T14:43:49;24.79;16.51
75786;DHT22;64402;44.708;37.644;2024-02-26T14:46:15;24.11;17.62
75786;DHT22;64402;44.708;37.644;2024-02-26T14:48:41;23.20;18.80
75786;DHT22;64402;44.708;37.644;2024-02-26T14:51:07;22.37;20.17
75786;DHT22;64402;44.708;37.644;2024-02-26T14:53:34;21.75;21.71
75786;DHT22;64402;44.708;37.644;2024-02-26T14:56:01;21.07;21.89
75786;DHT22;64402;44.708;37.644;2024-02-26T14:58:27;20.57;23.37
75786;DHT22;64402;44.708;37.644;2024-02-26T15:00:53;20.19;24.10
75786;DHT22;64402;44.708;37.644;2024-02-26T15:03:19;19.63;25.36
75786;DHT22;64402;44.708;37.644;2024-02-26T15:05:45;19.31;26.12
75786;DHT22;64402;44.708;37.644;2024-02-26T15:08:12;18.91;27.03
75786;DHT22;64402;44.708;37.644;2024-02-26T15:10:40;18.70;27.53
75786;DHT22;64402;44.708;37.644;2024-02-26T15:13:14;18.63;27.92
75786;DHT22;64402;44.708;37.644;2024-02-26T15:15:42;18.43;27.66
75786;DHT22;64402;44.708;37.644;2024-02-26T15:18:08;18.20;27.84
75786;DHT22;64402;44.708;37.644;2024-02-26T15:20:43;17.74;29.39
75786;DHT22;64402;44.708;37.644;2024-02-26T15:23:10;17.35;29.79
75786;DHT22;64402;44.708;37.644;2024-02-26T15:25:36;17.02;30.41
75786;DHT22;64402;44.708;37.644;2024-02-26T15:28:02;16.81;31.33
75786;DHT22;64402;44.708;37.644;2024-02-26T15:30:28;16.58;31.80
75786;DHT22;64402;44.708;37.644;2024-02-26T15:32:55;16.18;32.11
75786;DHT22;64402;44.708;37.644;2024-02-26T15:35:22;15.97;32.65
75786;DHT22;64402;44.708;37.644;2024-02-26T15:37:48;15.73;33.44